createdAt,value
2022-12-20T00:02:06.843Z,348.10
2022-12-20T00:04:54.998Z,350.13
2022-12-20T00:07:37.792Z,356.02
2022-12-20T00:10:26.618Z,356.53
2022-12-20T00:13:09.019Z,335.25
2022-12-20T00:15:57.778Z,342.83
2022-12-20T00:18:40.055Z,373.40
2022-12-20T00:21:28.687Z,398.02
2022-12-20T00:24:23.917Z,442.40
2022-12-20T00:27:16.695Z,445.80
2022-12-20T00:29:59.044Z,389.90
2022-12-20T00:32:47.673Z,375.02
2022-12-20T00:35:30.062Z,376.40
2022-12-20T00:38:19.778Z,362.30
2022-12-20T00:41:38.592Z,354.08
2022-12-20T00:44:36.600Z,354.00
2022-12-20T00:47:25.028Z,351.52
2022-12-20T00:50:06.765Z,338.48
2022-12-20T00:52:55.697Z,341.60
2022-12-20T00:55:37.977Z,345.60
2022-12-20T00:58:26.647Z,348.35
2022-12-20T01:01:09.994Z,345.83
2022-12-20T01:03:59.629Z,344.55
2022-12-20T01:06:42.979Z,346.38
2022-12-20T01:09:31.613Z,336.27
2022-12-20T01:12:20.753Z,333.48
2022-12-20T01:15:02.896Z,335.98
2022-12-20T01:17:52.650Z,321.40
2022-12-20T01:20:34.890Z,327.42
2022-12-20T01:23:23.596Z,331.48
2022-12-20T01:26:16.566Z,341.40
2022-12-20T01:29:03.022Z,329.33
2022-12-20T01:31:51.726Z,331.05
2022-12-20T01:34:33.941Z,322.73
2022-12-20T01:37:22.641Z,320.48
2022-12-20T01:40:11.698Z,321.05
2022-12-20T01:48:36.640Z,321.30
2022-12-20T01:51:27.029Z,306.98
2022-12-20T01:54:46.626Z,305.35
2022-12-20T01:57:46.047Z,309.30
2022-12-20T02:00:28.691Z,296.58
2022-12-20T02:03:20.602Z,295.50
2022-12-20T02:06:09.702Z,282.15
2022-12-20T02:08:54.061Z,295.70
2022-12-20T02:11:52.747Z,285.48
2022-12-20T02:14:56.472Z,280.40
2022-12-20T02:18:00.699Z,285.08
2022-12-20T02:21:14.631Z,264.02
2022-12-20T02:24:37.584Z,260.23
2022-12-20T02:27:42.078Z,258.13
2022-12-20T02:30:30.608Z,256.60
2022-12-20T02:33:15.184Z,257.88
2022-12-20T02:36:03.595Z,246.60
2022-12-20T02:38:59.714Z,262.70
2022-12-20T02:41:54.594Z,265.40
2022-12-20T02:45:05.647Z,278.05
2022-12-20T02:48:12.903Z,285.85
2022-12-20T02:50:59.735Z,283.38
2022-12-20T02:53:50.623Z,291.75
2022-12-20T02:56:47.182Z,293.17
2022-12-20T02:59:45.569Z,293.88
2022-12-20T03:02:35.837Z,283.63
2022-12-20T03:05:31.698Z,304.20
2022-12-20T03:08:13.883Z,296.38
2022-12-20T03:11:04.725Z,283.85
2022-12-20T03:13:46.936Z,284.00
2022-12-20T03:16:35.672Z,283.85
2022-12-20T03:19:18.996Z,281.63
2022-12-20T03:22:07.664Z,286.77
2022-12-20T03:24:49.785Z,285.63
2022-12-20T03:27:38.642Z,283.60
2022-12-20T03:30:27.970Z,280.42
2022-12-20T03:33:10.637Z,277.10
2022-12-20T03:35:58.987Z,285.73
2022-12-20T03:38:41.595Z,284.33
2022-12-20T03:41:24.574Z,267.08
2022-12-20T03:44:15.682Z,270.92
2022-12-20T03:47:10.697Z,266.48
2022-12-20T03:50:01.085Z,265.83
2022-12-20T03:52:44.611Z,261.23
2022-12-20T03:55:32.959Z,268.77
2022-12-20T03:58:14.576Z,265.35
2022-12-20T04:00:59.310Z,260.83
2022-12-20T04:03:54.673Z,256.98
2022-12-20T04:06:36.770Z,255.35
2022-12-20T04:09:25.596Z,276.52
2022-12-20T04:12:13.880Z,264.50
2022-12-20T04:15:02.575Z,262.23
2022-12-20T04:17:53.679Z,267.55
2022-12-20T04:20:36.067Z,257.35
2022-12-20T04:23:33.603Z,248.00
2022-12-20T04:26:18.872Z,244.65
2022-12-20T04:29:07.643Z,244.95
2022-12-20T04:31:52.081Z,259.15
2022-12-20T04:34:40.681Z,260.90
2022-12-20T04:37:22.964Z,263.30
2022-12-20T04:40:13.644Z,261.15
2022-12-20T04:43:07.579Z,265.08
2022-12-20T04:45:58.662Z,264.35
2022-12-20T04:48:56.935Z,268.30
2022-12-20T04:51:42.587Z,264.92
2022-12-20T04:54:28.343Z,284.75
2022-12-20T04:57:28.625Z,266.33
2022-12-20T05:00:16.455Z,268.58
2022-12-20T05:03:14.799Z,274.08
2022-12-20T05:05:57.804Z,267.10
2022-12-20T05:08:49.013Z,279.90
2022-12-20T05:11:37.901Z,270.02
2022-12-20T05:14:20.714Z,269.85
2022-12-20T05:17:09.757Z,273.75
2022-12-20T05:19:51.994Z,287.65
2022-12-20T05:22:58.580Z,290.23
2022-12-20T05:26:01.411Z,278.65
2022-12-20T05:28:52.630Z,293.52
2022-12-20T05:31:36.105Z,293.70
2022-12-20T05:34:24.700Z,292.08
2022-12-20T05:37:07.232Z,295.55
2022-12-20T05:39:57.533Z,292.73
2022-12-20T05:42:47.711Z,295.17
2022-12-20T05:45:37.311Z,296.05
2022-12-20T05:48:30.624Z,303.48
2022-12-20T05:51:13.899Z,299.77
2022-12-20T05:54:22.717Z,289.25
2022-12-20T05:57:11.076Z,267.60
2022-12-20T05:59:59.629Z,168.00
2022-12-20T06:02:52.194Z,185.65
2022-12-20T06:05:41.587Z,153.13
2022-12-20T06:08:36.663Z,158.83
2022-12-20T06:11:29.943Z,148.68
2022-12-20T06:14:23.576Z,142.23
2022-12-20T06:17:05.927Z,135.50
2022-12-20T06:19:54.605Z,128.00
2022-12-20T06:22:45.771Z,116.80
2022-12-20T06:25:28.892Z,129.07
2022-12-20T06:28:17.722Z,110.55
2022-12-20T06:31:00.470Z,104.50
2022-12-20T06:34:03.624Z,107.60
2022-12-20T06:36:55.908Z,115.38
2022-12-20T06:39:41.606Z,105.63
2022-12-20T06:42:30.597Z,109.43
2022-12-20T06:45:13.978Z,114.22
2022-12-20T06:48:02.710Z,110.20
2022-12-20T06:50:56.278Z,104.38
2022-12-20T06:53:38.869Z,117.45
2022-12-20T06:56:27.645Z,120.50
2022-12-20T06:59:16.992Z,103.30
2022-12-20T07:01:58.911Z,115.57
2022-12-20T07:04:46.946Z,116.10
2022-12-20T07:07:28.598Z,108.05
2022-12-20T07:10:17.679Z,112.00
2022-12-20T07:13:01.046Z,101.20
2022-12-20T07:15:49.599Z,108.10
2022-12-20T07:18:31.973Z,109.00
2022-12-20T07:21:24.632Z,97.97
2022-12-20T07:24:14.512Z,102.90
2022-12-20T07:27:03.652Z,97.60
2022-12-20T07:29:46.067Z,90.15
2022-12-20T07:32:34.606Z,102.70
2022-12-20T07:35:19.462Z,93.60
2022-12-20T07:38:08.672Z,91.50
2022-12-20T07:40:51.980Z,88.38
2022-12-20T07:43:40.671Z,102.88
2022-12-20T07:46:24.044Z,88.45
2022-12-20T07:49:13.618Z,87.30
2022-12-20T07:52:10.683Z,92.30
2022-12-20T07:55:07.658Z,93.80
2022-12-20T07:57:56.106Z,93.28
2022-12-20T08:00:47.645Z,85.10
2022-12-20T08:03:59.751Z,91.72
2022-12-20T08:06:43.487Z,86.03
2022-12-20T08:09:33.604Z,89.22
2022-12-20T08:12:25.972Z,91.68
2022-12-20T08:15:08.658Z,89.88
2022-12-20T08:17:58.905Z,96.63
2022-12-20T08:20:41.628Z,97.13
2022-12-20T08:23:29.916Z,91.28
2022-12-20T08:26:11.614Z,88.88
2022-12-20T08:28:59.956Z,93.85
2022-12-20T08:31:50.132Z,95.43
2022-12-20T08:34:38.949Z,94.85
2022-12-20T08:37:20.720Z,110.72
2022-12-20T08:40:09.731Z,106.68
2022-12-20T08:42:51.552Z,102.97
2022-12-20T08:45:40.110Z,98.93
2022-12-20T08:48:35.688Z,93.25
2022-12-20T08:51:17.913Z,96.28
2022-12-20T08:54:07.605Z,112.25
2022-12-20T08:56:56.039Z,119.50
2022-12-20T08:59:37.592Z,116.28
2022-12-20T09:02:27.188Z,115.55
2022-12-20T09:05:10.600Z,102.75
2022-12-20T09:07:58.928Z,115.27
2022-12-20T09:10:41.634Z,114.78
2022-12-20T09:13:29.954Z,117.70
2022-12-20T09:16:14.758Z,108.15
2022-12-20T09:19:06.737Z,102.07
2022-12-20T09:21:49.670Z,89.88
2022-12-20T09:24:37.957Z,90.57
2022-12-20T09:27:19.522Z,77.13
2022-12-20T09:30:08.659Z,81.85
2022-12-20T09:32:50.997Z,86.93
2022-12-20T09:35:41.582Z,91.80
2022-12-20T09:38:30.539Z,91.30
2022-12-20T09:41:50.642Z,104.70
2022-12-20T09:44:38.916Z,85.20
2022-12-20T09:47:32.706Z,105.40
2022-12-20T09:50:22.642Z,84.53
2022-12-20T09:53:33.937Z,93.05
2022-12-20T09:56:31.651Z,90.45
2022-12-20T09:59:24.574Z,76.78
2022-12-20T10:02:53.944Z,90.93
2022-12-20T10:05:46.788Z,82.53
2022-12-20T10:09:06.996Z,85.38
2022-12-20T10:12:29.614Z,69.10
2022-12-20T10:15:29.022Z,66.50
2022-12-20T10:18:23.690Z,62.05
2022-12-20T10:21:34.082Z,62.15
2022-12-20T10:24:27.635Z,66.85
2022-12-20T10:27:26.973Z,75.25
2022-12-20T10:30:23.709Z,73.35
2022-12-20T10:33:06.902Z,83.78
2022-12-20T10:35:56.538Z,92.20
2022-12-20T10:39:06.602Z,86.25
2022-12-20T10:41:59.640Z,85.55
2022-12-20T10:44:41.888Z,81.90
2022-12-20T10:47:54.579Z,102.68
2022-12-20T10:50:43.732Z,113.85
2022-12-20T10:53:32.664Z,89.95
2022-12-20T10:56:37.893Z,72.35
2022-12-20T10:59:26.664Z,86.50
2022-12-20T11:02:40.970Z,77.82
2022-12-20T11:05:37.650Z,70.57
2022-12-20T11:08:39.255Z,75.88
2022-12-20T11:11:31.625Z,65.93
2022-12-20T11:14:23.863Z,91.25
2022-12-20T11:17:08.607Z,89.22
2022-12-20T11:19:59.978Z,81.13
2022-12-20T11:22:54.618Z,76.70
2022-12-20T11:26:16.631Z,84.18
2022-12-20T11:29:41.935Z,82.53
2022-12-20T11:32:35.659Z,74.93
2022-12-20T11:35:34.913Z,74.68
2022-12-20T11:38:38.624Z,72.53
2022-12-20T11:41:53.338Z,80.45
2022-12-20T11:44:37.742Z,78.72
2022-12-20T11:47:50.425Z,78.15
2022-12-20T11:50:54.522Z,81.80
2022-12-20T11:53:46.124Z,78.13
2022-12-20T11:56:45.256Z,76.00
2022-12-20T11:59:51.236Z,76.72
2022-12-20T12:02:58.622Z,74.82
2022-12-20T12:05:51.969Z,80.95
2022-12-20T12:08:48.451Z,81.00
2022-12-20T12:12:05.839Z,88.03
2022-12-20T12:15:26.665Z,90.30
2022-12-20T12:18:43.284Z,86.30
2022-12-20T12:21:43.560Z,96.45
2022-12-20T12:24:42.588Z,94.68
2022-12-20T12:27:35.579Z,89.95
2022-12-20T12:30:22.967Z,108.67
2022-12-20T12:33:24.376Z,97.85
2022-12-20T12:36:32.621Z,98.45
2022-12-20T12:39:26.594Z,102.70
2022-12-20T12:42:43.596Z,98.90
2022-12-20T12:45:36.384Z,101.18
2022-12-20T12:48:58.536Z,116.53
2022-12-20T12:51:51.812Z,108.70
2022-12-20T12:54:50.029Z,116.43
2022-12-20T12:58:07.661Z,109.65
2022-12-20T13:01:03.618Z,119.53
2022-12-20T13:03:55.343Z,120.22
2022-12-20T13:06:44.651Z,132.05
2022-12-20T13:09:33.678Z,118.95
2022-12-20T13:12:47.701Z,116.40
2022-12-20T13:15:37.618Z,125.03
2022-12-20T13:18:20.063Z,124.55
2022-12-20T13:21:40.601Z,122.50
2022-12-20T13:24:47.651Z,130.52
2022-12-20T13:27:49.553Z,130.68
2022-12-20T13:30:34.496Z,114.70
2022-12-20T13:33:54.640Z,125.93
2022-12-20T13:36:46.954Z,131.57
2022-12-20T13:39:37.028Z,128.40
2022-12-20T13:42:34.965Z,123.80
2022-12-20T13:45:23.616Z,116.78
2022-12-20T13:48:17.648Z,119.55
2022-12-20T13:51:06.825Z,123.28
2022-12-20T13:53:57.523Z,134.00
2022-12-20T13:57:06.964Z,134.48
2022-12-20T13:59:52.587Z,131.15
2022-12-20T14:02:48.061Z,121.57
2022-12-20T14:05:50.647Z,126.18
2022-12-20T14:08:35.971Z,141.85
2022-12-20T14:11:43.626Z,134.65
2022-12-20T14:14:31.960Z,133.60
2022-12-20T14:17:36.482Z,147.48
2022-12-20T14:20:26.858Z,138.32
2022-12-20T14:23:30.610Z,137.68
2022-12-20T14:26:46.005Z,148.95
2022-12-20T14:29:36.623Z,157.68
2022-12-20T14:32:29.218Z,150.43
2022-12-20T14:35:12.663Z,151.53
2022-12-20T14:40:54.213Z,140.57
2022-12-20T14:43:38.773Z,141.38
2022-12-20T14:46:36.738Z,145.50
2022-12-20T14:49:31.449Z,150.50
2022-12-20T14:52:26.594Z,161.05
2022-12-20T14:55:27.915Z,159.20
2022-12-20T14:58:30.626Z,149.75
2022-12-20T15:01:29.654Z,160.18
2022-12-20T15:04:38.546Z,158.88
2022-12-20T15:07:40.032Z,170.23
2022-12-20T15:10:22.577Z,156.15
2022-12-20T15:13:04.990Z,157.38
2022-12-20T15:15:53.611Z,157.52
2022-12-20T15:18:43.043Z,155.85
2022-12-20T15:21:36.665Z,151.57
2022-12-20T15:24:31.547Z,151.07
2022-12-20T15:27:20.036Z,151.60
2022-12-20T15:30:08.580Z,147.43
2022-12-20T15:32:55.619Z,171.40
2022-12-20T15:35:44.578Z,148.25
2022-12-20T15:38:54.899Z,154.85
2022-12-20T15:41:42.606Z,163.60
2022-12-20T15:44:30.996Z,152.52
2022-12-20T15:47:21.599Z,160.82
2022-12-20T15:50:19.093Z,161.85
2022-12-20T15:53:08.693Z,158.70
2022-12-20T15:55:51.285Z,175.23
2022-12-20T15:58:40.656Z,158.25
2022-12-20T16:01:48.723Z,169.27
2022-12-20T16:04:37.599Z,177.77
2022-12-20T16:07:21.008Z,182.52
2022-12-20T16:10:09.524Z,180.75
2022-12-20T16:12:59.664Z,178.00
2022-12-20T16:15:48.949Z,190.73
2022-12-20T16:18:34.612Z,180.23
2022-12-20T16:21:34.550Z,186.60
2022-12-20T16:24:27.593Z,185.50
2022-12-20T16:27:16.574Z,199.70
2022-12-20T16:29:58.789Z,197.30
2022-12-20T16:32:48.543Z,211.68
2022-12-20T16:35:42.956Z,208.35
2022-12-20T16:38:31.598Z,198.93
2022-12-20T16:41:28.490Z,210.35
2022-12-20T16:44:23.559Z,199.98
2022-12-20T16:47:05.912Z,200.65
2022-12-20T16:49:54.544Z,203.95
2022-12-20T16:52:45.532Z,197.38
2022-12-20T16:55:32.176Z,213.23
2022-12-20T16:58:44.905Z,200.77
2022-12-20T17:01:33.136Z,214.38
2022-12-20T17:04:26.560Z,216.25
2022-12-20T17:07:15.618Z,214.48
2022-12-20T17:09:58.372Z,210.23
2022-12-20T17:12:47.584Z,227.15
2022-12-20T17:15:38.006Z,219.13
2022-12-20T17:18:26.572Z,224.23
2022-12-20T17:21:11.844Z,219.50
2022-12-20T17:24:01.603Z,223.43
2022-12-20T17:26:43.973Z,228.27
2022-12-20T17:29:32.647Z,222.50
2022-12-20T17:32:27.891Z,238.15
2022-12-20T17:35:38.606Z,233.93
2022-12-20T17:38:20.929Z,227.75
2022-12-20T17:41:09.497Z,230.43
2022-12-20T17:43:51.953Z,233.85
2022-12-20T17:46:41.567Z,238.00
2022-12-20T17:49:37.583Z,235.55
2022-12-20T17:52:28.436Z,229.40
2022-12-20T17:55:10.856Z,244.73
2022-12-20T17:58:00.707Z,254.82
2022-12-20T18:00:42.929Z,237.57
2022-12-20T18:04:02.303Z,254.90
2022-12-20T18:06:34.908Z,238.45
2022-12-20T18:09:26.533Z,245.98
2022-12-20T18:12:09.208Z,236.90
2022-12-20T18:14:58.427Z,239.40
2022-12-20T18:17:40.963Z,240.55
2022-12-20T18:20:29.682Z,233.38
2022-12-20T18:23:11.996Z,242.25
2022-12-20T18:26:00.612Z,241.73
2022-12-20T18:28:44.009Z,244.05
2022-12-20T18:31:35.669Z,251.13
2022-12-20T18:34:17.895Z,244.60
2022-12-20T18:37:06.572Z,233.63
2022-12-20T18:39:48.952Z,241.40
2022-12-20T18:42:37.515Z,238.43
2022-12-20T18:45:19.854Z,252.52
2022-12-20T18:48:08.669Z,237.93
2022-12-20T18:50:56.972Z,249.35
2022-12-20T18:53:41.566Z,231.60
2022-12-20T18:56:48.564Z,238.52
2022-12-20T18:59:30.822Z,243.45
2022-12-20T19:02:19.627Z,281.02
2022-12-20T19:05:08.561Z,247.85
2022-12-20T19:07:51.063Z,263.88
2022-12-20T19:10:40.952Z,270.10
2022-12-20T19:13:22.984Z,290.92
2022-12-20T19:16:16.674Z,322.73
2022-12-20T19:18:59.773Z,359.73
2022-12-20T19:21:49.484Z,365.80
2022-12-20T19:24:38.541Z,389.23
2022-12-20T19:27:27.508Z,380.70
2022-12-20T19:30:09.953Z,354.85
2022-12-20T19:32:58.505Z,313.42
2022-12-20T19:35:55.359Z,290.30
2022-12-20T19:38:44.533Z,293.20
2022-12-20T19:41:27.875Z,360.42
2022-12-20T19:44:17.541Z,367.10
2022-12-20T19:47:06.748Z,313.38
2022-12-20T19:50:02.363Z,301.95
2022-12-20T19:52:51.502Z,275.88
2022-12-20T19:55:34.050Z,287.35
2022-12-20T19:58:22.439Z,282.63
2022-12-20T20:01:05.864Z,271.58
2022-12-20T20:03:55.431Z,279.40
2022-12-20T20:06:37.945Z,266.27
2022-12-20T20:09:26.594Z,265.63
2022-12-20T20:12:09.871Z,272.15
2022-12-20T20:15:00.459Z,275.90
2022-12-20T20:17:42.903Z,270.55
2022-12-20T20:20:31.578Z,259.73
2022-12-20T20:23:13.826Z,272.02
2022-12-20T20:26:07.550Z,274.20
2022-12-20T20:28:49.835Z,267.63
2022-12-20T20:31:39.593Z,262.13
2022-12-20T20:34:21.999Z,257.65
2022-12-20T20:37:10.531Z,273.73
2022-12-20T20:39:52.871Z,264.80
2022-12-20T20:42:41.534Z,264.60
2022-12-20T20:45:23.775Z,266.85
2022-12-20T20:48:12.449Z,272.20
2022-12-20T20:51:00.927Z,260.23
2022-12-20T20:53:43.411Z,261.15
2022-12-20T20:56:32.524Z,261.00
2022-12-20T20:59:17.904Z,254.15
2022-12-20T21:02:06.916Z,257.63
2022-12-20T21:05:07.444Z,266.70
2022-12-20T21:07:57.854Z,253.75
2022-12-20T21:10:40.586Z,259.42
2022-12-20T21:13:28.872Z,256.67
2022-12-20T21:16:15.417Z,262.33
2022-12-20T21:19:06.839Z,260.13
2022-12-20T21:21:48.569Z,283.38
2022-12-20T21:24:30.820Z,282.60
2022-12-20T21:27:19.548Z,276.70
2022-12-20T21:30:08.553Z,281.58
2022-12-20T21:32:50.795Z,277.48
2022-12-20T21:35:39.464Z,286.65
2022-12-20T21:38:28.473Z,288.60
2022-12-20T21:41:20.372Z,269.95
2022-12-20T21:44:11.522Z,287.95
2022-12-20T21:46:59.874Z,275.52
2022-12-20T21:49:55.404Z,275.73
2022-12-20T21:52:45.586Z,276.98
2022-12-20T21:55:27.738Z,273.33
2022-12-20T21:58:16.374Z,280.95
2022-12-20T22:01:00.794Z,274.55
2022-12-20T22:03:49.529Z,275.42
2022-12-20T22:06:32.558Z,288.10
2022-12-20T22:09:21.469Z,286.90
2022-12-20T22:12:10.688Z,276.30
2022-12-20T22:14:59.933Z,282.00
2022-12-20T22:17:42.516Z,289.15
2022-12-20T22:20:31.552Z,288.77
2022-12-20T22:23:13.815Z,293.65
2022-12-20T22:26:02.474Z,291.73
2022-12-20T22:28:50.414Z,290.10
2022-12-20T22:31:39.566Z,298.58
2022-12-20T22:34:21.778Z,293.40
2022-12-20T22:37:10.461Z,296.80
2022-12-20T22:39:59.411Z,296.45
2022-12-20T22:42:42.347Z,272.35
2022-12-20T22:45:31.559Z,283.38
2022-12-20T22:48:19.777Z,278.13
2022-12-20T22:51:10.523Z,284.60
2022-12-20T22:53:59.498Z,272.55
2022-12-20T22:56:47.755Z,280.88
2022-12-20T22:59:30.495Z,269.10
2022-12-20T23:02:18.874Z,272.25
2022-12-20T23:05:01.440Z,265.77
2022-12-20T23:07:50.404Z,271.13
2022-12-20T23:10:57.367Z,274.27
2022-12-20T23:14:09.539Z,272.67
2022-12-20T23:16:51.989Z,256.23
2022-12-20T23:19:59.895Z,274.20
2022-12-20T23:22:41.861Z,251.80
2022-12-20T23:25:30.570Z,260.42
2022-12-20T23:28:12.868Z,256.02
2022-12-20T23:31:01.512Z,253.85
2022-12-20T23:33:44.788Z,242.20
2022-12-20T23:36:33.535Z,237.25
2022-12-20T23:39:16.831Z,245.80
2022-12-20T23:42:05.592Z,235.40
2022-12-20T23:44:47.788Z,234.52
2022-12-20T23:47:36.526Z,277.88
2022-12-20T23:50:24.791Z,263.50
2022-12-20T23:53:06.468Z,252.93
2022-12-20T23:55:58.972Z,286.70
2022-12-20T23:58:47.505Z,313.58
